logo
App data

Blacklight: Tango Down

In Blacklight: Tango Down, experience the bleeding edge of advanced warfare. Participate in the “NetWar”: a hyper-realistic battlefield letting you fight tomorrow’s conflicts with or against your friends in the gritty Blacklight universe.
Store | Hub | SteamDB | Site
Developer: Zombie Studios Publisher: Ignition Entertainment
Genre: Action
Languages: English
Tags: Action (44), FPS (14), Multiplayer (14), First-Person (13), Shooter (12), Singleplayer (5), Co-op (5)
Category: Single-player, Multi-player, Co-op, Partial Controller Support
Release date: Jul 14, 2010
N/A
Old userscore: 40% Metascore: 65%
Owners: 50,000 .. 100,000
Followers: 411
Peak concurrent players yesterday: 1
YouTube stats: 7 views and 1 comments for top 50 videos uploaded last week, 1 new videos uploaded yesterday.

Steam Spy is still in beta, so expect major bugs.

Owners data:

Access restricted.

This feature is only available to users with special access rights. Sorry.

If you want to proceed, you need to register or log in first and then back Steam Spy on Patreon. Look for Indie or Pro pledge.

Don't forget to use the same email as on Steam Spy!

Audience in 2 weeks:

Access restricted.

This feature is only available to users with special access rights. Sorry.

If you want to proceed, you need to register or log in first and then back Steam Spy on Patreon. Look for Indie or Pro pledge.

Don't forget to use the same email as on Steam Spy!

Peak daily concurrent players:

CCU data courtesy of SteamDB. Used with permission.

Hourly concurrent players:

Daily Twitch stats:

Hourly Twitch stats:

Followers over time

Access restricted.

This feature is only available to users with special access rights. Sorry.

If you want to proceed, you need to register or log in first and then back Steam Spy on Patreon. Look for Indie or Pro pledge.

Don't forget to use the same email as on Steam Spy!

Views for top 50 videos on YouTube for this game:

Games similar to this one:

# Game Release date
Price
Score rank
(Userscore / Metascore)
Owners
Players
Playtime (Median)
1 A Legend of Luca Apr 5, 2016 $9.99N/A (N/A)0 .. 20,0000%00:00 (00:00)
2 Scrap Garden - The Day Before Oct 7, 2016 FreeN/A (N/A)100,000 .. 200,0000%00:00 (00:00)
3 Skautfold: Shrouded in Sanity May 27, 2016 $4.99N/A (N/A)0 .. 20,0000%00:00 (00:00)
4 Unbox: Newbie's Adventure Sep 5, 2016 $19.99N/A (N/A/68%)50,000 .. 100,0000%00:00 (00:00)
5 Spell Fighter VR Mar 1, 2016 FreeN/A (N/A)100,000 .. 200,0000%00:00 (00:00)
6 Xmas Shooting - Scramble!! Dec 16, 2016 $4.99N/A (N/A)0 .. 20,0000%00:00 (00:00)
7 Zenodyne R May 29, 2016 $9.99N/A (N/A)0 .. 20,0000%00:00 (00:00)
8 STAR WARS SHADOWS OF THE EMPIRE Sep 17, 1997 $5.99N/A (N/A)20,000 .. 50,0000%00:00 (00:00)
9 Versus: Battle of the Gladiator Aug 26, 2016 N/AN/A (N/A)50,000 .. 100,0000%00:00 (00:00)
10 Umihara Kawase Shun Nov 24, 2015 $11.99N/A (N/A)0 .. 20,0000%00:00 (00:00)
11 Phantaruk Aug 16, 2016 $4.99N/A (N/A/53%)20,000 .. 50,0000%00:00 (00:00)
12 Call of Tomsk-7 Aug 10, 2015 $0.99N/A (N/A)20,000 .. 50,0000%00:00 (00:00)
13 Yomawari: Night Alone Oct 25, 2016 $9.99N/A (N/A)50,000 .. 100,0000%00:00 (00:00)
14 Mighty Gunvolt Sep 29, 2015 $4.99N/A (N/A)20,000 .. 50,0000%00:00 (00:00)
15 V ARRR Jun 10, 2016 $9.99N/A (N/A)0 .. 20,0000%00:00 (00:00)
16 Code of Princess Apr 14, 2016 $14.99N/A (N/A/53%)20,000 .. 50,0000%00:00 (00:00)
17 Mind OVR Matter May 22, 2017 $4.99N/A (N/A)0 .. 20,0000%00:00 (00:00)
18 Bionic Commando Jul 28, 2009 $9.99N/A (N/A/69%)200,000 .. 500,0000%00:00 (00:00)
19 Alien Shooter: Revisited Apr 15, 2009 $4.99N/A (N/A)100,000 .. 200,0000%00:00 (00:00)
20 Bionic Commando: Rearmed Aug 14, 2008 $9.99N/A (N/A/86%)200,000 .. 500,0000%00:00 (00:00)
21 Zombie Shooter Dec 29, 2007 $4.99N/A (N/A)100,000 .. 200,0000%00:00 (00:00)
22 Alien Breed: Impact Jun 3, 2010 $9.99N/A (N/A/64%)200,000 .. 500,0000%00:00 (00:00)
23 Zombie Shooter 2 Sep 23, 2009 $9.99N/A (N/A)100,000 .. 200,0000%00:00 (00:00)
24 Alien Breed 2: Assault Sep 22, 2010 $9.99N/A (N/A/63%)200,000 .. 500,0000%00:00 (00:00)
25 SEGA Mega Drive and Genesis Classics Jun 1, 2010 N/AN/A (N/A)500,000 .. 1,000,0008.5%00:18 (00:09)
26 Booster Trooper Apr 23, 2010 $1.99N/A (N/A)50,000 .. 100,0000%00:00 (00:00)
27 Tom Clancy's Rainbow Six Lockdown May 13, 2008 $9.99N/A (N/A/59%)20,000 .. 50,0000%00:00 (00:00)
28 Dead Horde Jul 27, 2011 $5.99N/A (N/A)50,000 .. 100,0000%00:00 (00:00)
29 Rayman Raving Rabbids Mar 27, 2007 $9.99N/A (N/A/58%)20,000 .. 50,0000%00:00 (00:00)
30 Sam & Max 301: The Penal Zone N/AN/A (N/A)0 .. 20,0000%00:00 (00:00)
31 Legendary Dec 1, 2008 $1.99N/A (N/A/50%)200,000 .. 500,0000%00:00 (00:00)
32 Comanche 4 Nov 15, 2001 $9.99N/A (N/A/74%)20,000 .. 50,0000%00:00 (00:00)
33 Prince of Persia Dec 10, 2008 $9.99N/A (N/A/82%)200,000 .. 500,0000%00:00 (00:00)
34 Alien Shooter Sep 15, 2003 $4.99N/A (N/A)200,000 .. 500,0000%00:00 (00:00)
35 PLANETS OF WAR Jun 30, 2017 $1.99N/A (N/A)0 .. 20,0000%00:00 (00:00)
36 NyxQuest: Kindred Spirits Sep 27, 2010 $2.99N/A (N/A)20,000 .. 50,0000%00:00 (00:00)
37 Serious Sam Double D XXL Aug 30, 2011 $9.99N/A (N/A)200,000 .. 500,0000%00:00 (00:00)
38 The First Templar - Steam Special Edition May 12, 2011 $9.99N/A (N/A/57%)100,000 .. 200,0000%00:00 (00:00)
39 Global Ops: Commando Libya Oct 26, 2011 $4.99N/A (N/A/37%)50,000 .. 100,0000%00:00 (00:00)
40 Painkiller Redemption Feb 25, 2011 $4.99N/A (N/A/43%)200,000 .. 500,0000%00:00 (00:00)
41 Sonic the Hedgehog 4 - Episode II May 15, 2012 $9.99N/A (N/A/54%)100,000 .. 200,0000%00:00 (00:00)
42 Capsized Apr 29, 2011 $9.99N/A (N/A/80%)200,000 .. 500,0000%00:00 (00:00)
43 Deep Black: Reloaded Apr 18, 2012 $29.99N/A (N/A/39%)0 .. 20,0000%00:00 (00:00)
44 Garshasp: The Monster Slayer May 9, 2011 $4.99N/A (N/A/49%)50,000 .. 100,0000%00:00 (00:00)
45 AquaNox Apr 20, 2010 $4.99N/A (N/A/67%)100,000 .. 200,0000%00:00 (00:00)
46 Garshasp: Temple of the Dragon Sep 24, 2012 $4.99N/A (N/A)20,000 .. 50,0000%00:00 (00:00)
47 Chaser Jul 16, 2010 $4.99N/A (N/A/66%)100,000 .. 200,0000%00:00 (00:00)
48 Warp Mar 21, 2012 $9.99N/A (N/A)100,000 .. 200,0000%00:00 (00:00)
49 Wasteland Angel Sep 1, 2011 $9.99N/A (N/A)100,000 .. 200,0000%00:00 (00:00)
50 Alien Zombie Megadeath Oct 18, 2011 $4.99N/A (N/A)20,000 .. 50,0000%00:00 (00:00)
51 Plain Sight Apr 5, 2010 $4.99N/A (N/A/76%)50,000 .. 100,0000%00:00 (00:00)
52 Bunch of Heroes Sep 21, 2011 $4.99N/A (N/A)50,000 .. 100,0000%00:00 (00:00)
53 Inversion Jul 26, 2012 $9.99N/A (N/A)20,000 .. 50,0000%00:00 (00:00)
54 Guncraft Aug 9, 2013 $14.99N/A (N/A/73%)50,000 .. 100,0000%00:00 (00:00)
55 Intrusion 2 Sep 11, 2012 $9.99N/A (N/A/80%)200,000 .. 500,0000%00:00 (00:00)
56 Blood Omen 2: Legacy of Kain Mar 29, 2002 $6.99N/A (N/A)200,000 .. 500,0000%00:00 (00:00)
57 Karateka Dec 3, 2012 $3.99N/A (N/A/48%)50,000 .. 100,0000%00:00 (00:00)
58 Disney Epic Mickey 2: The Power of Two Oct 6, 2014 $19.99N/A (N/A)20,000 .. 50,0000%00:00 (00:00)
59 iBomber Attack Nov 1, 2012 $5.99N/A (N/A)20,000 .. 50,0000%00:00 (00:00)
60 Strike Vector Jan 28, 2014 N/AN/A (N/A/73%)100,000 .. 200,0000%00:00 (00:00)
61 NiGHTS Into Dreams Dec 17, 2012 $7.99N/A (N/A)200,000 .. 500,0000%00:00 (00:00)
62 Foreign Legion: Multi Massacre Jul 9, 2012 $4.99N/A (N/A)20,000 .. 50,0000%00:00 (00:00)
63 Miner Wars 2081 Nov 28, 2012 $3.49N/A (N/A/52%)50,000 .. 100,0000%00:00 (00:00)
64 Sacred Citadel Apr 16, 2013 $9.99N/A (N/A/61%)100,000 .. 200,0000%00:00 (00:00)
65 Dragon's Lair May 17, 2013 $9.99N/A (N/A)50,000 .. 100,0000%00:00 (00:00)
66 Blades of Time Apr 20, 2012 $9.99N/A (N/A/63%)200,000 .. 500,0000%00:00 (00:00)
67 Thunder Wolves May 15, 2013 $9.99N/A (N/A/69%)100,000 .. 200,0000%00:00 (00:00)
68 Kung Fu Strike - The Warrior's Rise Jul 24, 2012 $9.99N/A (N/A)100,000 .. 200,0000%00:00 (00:00)
69 Strike Suit Infinity Apr 30, 2013 $6.99N/A (N/A/66%)100,000 .. 200,0000%00:00 (00:00)
70 Alone in the Dark Oct 29, 2013 $9.99N/A (N/A/55%)20,000 .. 50,0000%00:00 (00:00)
71 Putt-Putt Saves The Zoo Jul 3, 2014 $6.99N/A (N/A)20,000 .. 50,0000%00:00 (00:00)
72 BlackSoul: Extended Edition Feb 26, 2014 $0.99N/A (N/A)100,000 .. 200,0000%00:00 (00:00)
73 Kraven Manor Sep 26, 2014 FreeN/A (N/A/58%)100,000 .. 200,0000%00:00 (00:00)
74 GIGANTIC ARMY Mar 6, 2014 $5.99N/A (N/A)50,000 .. 100,0000%00:00 (00:00)
75 Chernobyl Commando Jun 6, 2014 N/AN/A (N/A)50,000 .. 100,0000%00:00 (00:00)
76 Eterium Apr 15, 2014 $4.99N/A (N/A)100,000 .. 200,0000%00:00 (00:00)
77 The Way May 20, 2016 $14.99N/A (N/A/67%)100,000 .. 200,0000%00:00 (00:00)
78 Stick 'Em Up 2: Paper Adventures Jul 27, 2015 $2.99N/A (N/A)20,000 .. 50,0000%00:00 (00:00)
79 Shadow Man Oct 18, 2013 $4.99N/A (N/A)50,000 .. 100,0000%00:00 (00:00)
80 House of the Dying Sun Nov 1, 2016 $19.99N/A (N/A/76%)100,000 .. 200,0000%00:00 (00:00)
81 YAIBA: NINJA GAIDEN Z Mar 21, 2014 $29.99N/A (N/A/49%)20,000 .. 50,0000%00:00 (00:00)
82 Project Root May 1, 2014 $9.99N/A (N/A)20,000 .. 50,0000%00:00 (00:00)
83 Tiny Barbarian DX Dec 3, 2013 $29.99N/A (N/A)0 .. 20,0000%00:00 (00:00)
84 El Matador Apr 3, 2014 $3.99N/A (N/A/54%)20,000 .. 50,0000%00:00 (00:00)
85 Hot Tin Roof: The Cat That Wore A Fedora Feb 20, 2015 $14.99N/A (N/A/66%)50,000 .. 100,0000%00:00 (00:00)
86 Elliot Quest Nov 10, 2014 $9.99N/A (N/A)20,000 .. 50,0000%00:00 (00:00)
87 Unreal 2: The Awakening Feb 3, 2003 $14.99N/A (N/A/75%)200,000 .. 500,0000%00:00 (00:00)
88 Armed and Dangerous Jul 8, 2009 $5.99N/A (N/A/78%)0 .. 20,0000%00:00 (00:00)
89 Prince of Persia: Warrior Within Nov 30, 2004 $9.99N/A (N/A/83%)200,000 .. 500,0000%00:00 (00:00)
90 Project: Snowblind Mar 29, 2007 $5.99N/A (N/A/76%)100,000 .. 200,0000%00:00 (00:00)
91 Prince of Persia: The Two Thrones Dec 7, 2005 $9.99N/A (N/A/85%)200,000 .. 500,0000%00:00 (00:00)
92 Conflict: Denied Ops Feb 8, 2008 $5.99N/A (N/A/58%)100,000 .. 200,0000%00:00 (00:00)
93 Tom Clancy's Rainbow Six Vegas Apr 9, 2008 $9.99N/A (N/A/85%)100,000 .. 200,0000%00:00 (00:00)
94 QUAKE Mission Pack 1: Scourge of Armagon Aug 3, 2007 $2.99N/A (N/A)200,000 .. 500,0000%00:00 (00:00)
95 Tom Clancy's Ghost Recon Desert Siege Jul 15, 2008 $4.99N/A (N/A/82%)100,000 .. 200,0000%00:00 (00:00)
96 Frontlines: Fuel of War Feb 29, 2008 $19.99N/A (N/A/73%)200,000 .. 500,0000%00:00 (00:00)
97 The Ship: Single Player Nov 20, 2006 N/AN/A (N/A)200,000 .. 500,0000%00:00 (00:00)
98 TimeShift Jul 23, 2009 $19.99N/A (N/A/71%)100,000 .. 200,0000%00:00 (00:00)
99 Alpha Prime Nov 7, 2007 $0.99N/A (N/A/59%)200,000 .. 500,0000%00:00 (00:00)
100 Larva Mortus Mar 19, 2009 $4.99N/A (N/A/64%)100,000 .. 200,0000%00:00 (00:00)
101 Painkiller Overdose Oct 30, 2007 $4.99N/A (N/A/65%)200,000 .. 500,0000%00:00 (00:00)
102 Damnation May 22, 2009 $1.99N/A (N/A/41%)50,000 .. 100,0000%00:00 (00:00)
103 Judge Dredd: Dredd vs. Death Feb 28, 2005 $7.99N/A (N/A/55%)50,000 .. 100,0000%00:00 (00:00)
104 ManaCollect Apr 17, 2015 $6.99N/A (N/A)0 .. 20,0000%00:00 (00:00)
105 METAL SLUG 2 Apr 14, 2016 $6.99N/A (N/A)100,000 .. 200,0000%00:00 (00:00)
106 Raptor: Call of The Shadows - 2015 Edition Apr 1, 1994 $4.99N/A (N/A)20,000 .. 50,0000%00:00 (00:00)
107 SHOCK TROOPERS May 18, 2016 $7.99N/A (N/A)20,000 .. 50,0000%00:00 (00:00)
108 ABRACA - Imagic Games Mar 31, 2016 $14.99N/A (N/A)0 .. 20,0000%00:00 (00:00)
109 Cruel Arena Aug 18, 2015 $0.99N/A (N/A)50,000 .. 100,0000%00:00 (00:00)
110 On My Own Feb 26, 2016 $4.99N/A (N/A)0 .. 20,0000%00:00 (00:00)
111 Glass Wing Jun 24, 2015 FreeN/A (N/A)50,000 .. 100,0000%00:00 (00:00)
112 Cobalt Feb 2, 2016 $14.99N/A (N/A/69%)20,000 .. 50,0000%00:00 (00:00)
113 OCEAN CITY RACING Aug 27, 2016 $1.99N/A (N/A)50,000 .. 100,0000%00:00 (00:00)
114 Hocus Pocus May 5, 2014 $4.99N/A (N/A)20,000 .. 50,0000%00:00 (00:00)
115 Vertical Drop Heroes HD Jul 25, 2014 $6.99N/A (N/A/70%)100,000 .. 200,0000%00:00 (00:00)
116 Stargunner May 5, 2014 FreeN/A (N/A)0 .. 20,0000%00:00 (00:00)
117 Obludia Jul 18, 2014 $2.99N/A (N/A)20,000 .. 50,0000%00:00 (00:00)
118 Rise of the Triad: Dark War May 5, 2014 $6.99N/A (N/A)0 .. 20,0000%00:00 (00:00)
119 Down To One Jan 7, 2016 $0.99N/A (N/A)100,000 .. 200,0000%00:00 (00:00)
120 Mega Man Legacy Collection Aug 24, 2015 $14.99N/A (N/A/85%)200,000 .. 500,0000%00:00 (00:00)

Tags over time:

Access restricted.

This feature is only available to users with special access rights. Sorry.

If you want to proceed, you need to register or log in first and then back Steam Spy on Patreon. Look for Indie or Pro pledge.

Don't forget to use the same email as on Steam Spy!

Owners of this game also own:

Access restricted.

This feature is only available to users with special access rights. Sorry.

If you want to proceed, you need to register or log in first and then back Steam Spy on Patreon. Look for Indie or Pro pledge.

Don't forget to use the same email as on Steam Spy!

Playtime distribution:

Access restricted.

This feature is only available to users with special access rights. Sorry.

If you want to proceed, you need to register or log in first and then back Steam Spy on Patreon. Look for Indie or Pro pledge.

Don't forget to use the same email as on Steam Spy!

Playtime (2 weeks):

Access restricted.

This feature is only available to users with special access rights. Sorry.

If you want to proceed, you need to register or log in first and then back Steam Spy on Patreon. Look for Indie or Pro pledge.

Don't forget to use the same email as on Steam Spy!

User reviews:

Login required.

Please register or log in to see this information.